Warren, Texas
Current Conditions -  °F | °C
As of 2:55 PM on Tuesday 27 Jan 2015 (Local Time) from KJAS Reporting Station
Clear Clear  
Wind Chill: 25°   Ceiling: Unl
Heat Index: 25°   Visibility: 10mi
Dew Point:   Wind: 6mph
Humidity: 28%   Direction: 330°NNW
Pressure: 30.12"   Gusts: NA
Location:  30.62°N, 94.41°W
Report Text: KJAS 272055Z AUTO 33005KT 10SM CLR 25/05 A3012 RMK AO2 T02450047
Loading
Personal Weather Stations






























Interactive Weather Map New forecast layout! Learn more

10-Day Weather Forecast

Advertisements
Track Severe Weather on mobile